Hermes Leader — C6AX9 — position and weather

sailwx.info

Track history (hours):
 
Tides and Currents Weather Stations Pressure Air Temp Water Temp Dewpoint Dewpoint Depression Visibility Wind Speed Wind Dir Waves Ship Positions

Hermes Leader

Last reported at 2018-Jul-19 19:12 UTC. Time now 2018-Jul-22 16:32 UTC.
Position N 39°34' W 132°33'.

Length 200 m; draft 8.4 m.

Type: Cargo ship. MMSI: 311000188.

Date/timePositionNaut miles runAvg speedWind from/ knotsBaromVisibWave heightAir tempDewpointWater temp
2018-Jul-19 19:12N 39°34' W 132°33'212.5
2018-Jul-19 19:01N 39°33' W 132°30'712.4
2018-Jul-19 18:28N 39°30' W 132°22'912.5
2018-Jul-19 17:47N 39°27' W 132°12'412.5
2018-Jul-19 17:30N 39°25' W 132°08'612.4
2018-Jul-19 17:00N 39°22' W 132°01'612.3
2018-Jul-19 16:30N 39°20' W 131°53'1312.3
2018-Jul-19 15:25N 39°14' W 131°38'512.3
2018-Jul-19 15:00N 39°12' W 131°32'2012.5
2018-Jul-19 13:24N 39°04' W 131°08'1112.4
2018-Jul-19 12:31N 38°59' W 130°56'012.9
2018-Jul-19 12:29N 38°59' W 130°55'712.2
2018-Jul-19 11:56N 38°57' W 130°47'912.3
2018-Jul-19 11:14N 38°53' W 130°37'1411.9
2018-Jul-19 10:05N 38°47' W 130°21'511.6
2018-Jul-19 09:41N 38°45' W 130°16'311.8
2018-Jul-19 09:27N 38°44' W 130°12'1211.7
2018-Jul-19 08:24N 38°39' W 129°58'1411.7
2018-Jul-19 07:10N 38°32' W 129°42'211.7
2018-Jul-19 06:58N 38°31' W 129°39'611.8
2018-Jul-19 06:30N 38°28' W 129°33'6611.7
2018-Jul-19 00:50N 37°56' W 128°20'1311.5
2018-Jul-18 23:40N 37°50' W 128°05'311.7
2018-Jul-18 23:23N 37°48' W 128°01'1512.2
2018-Jul-18 22:10N 37°41' W 127°45'1412.1
2018-Jul-18 21:00N 37°34' W 127°29'912.8
2018-Jul-18 20:19N 37°34' W 127°18'412.9
2018-Jul-18 19:59N 37°34' W 127°13'1513.0
2018-Jul-18 18:50N 37°34' W 126°53'613.1
2018-Jul-18 18:24N 37°34' W 126°47'4212.8
2018-Jul-18 15:05N 37°34' W 125°53'112.2
2018-Jul-18 15:00N 37°34' W 125°52'612.0
2018-Jul-18 14:29N 37°34' W 125°44'1212.2
2018-Jul-18 13:30N 37°34' W 125°29'612.0
2018-Jul-18 13:00N 37°34' W 125°21'612.1
2018-Jul-18 12:30N 37°34' W 125°14'611.9
2018-Jul-18 12:00N 37°34' W 125°06'611.8
2018-Jul-18 11:30N 37°34' W 124°59'1212.0
2018-Jul-18 10:30N 37°34' W 124°43'612.0
2018-Jul-18 10:00N 37°34' W 124°36'611.9
2018-Jul-18 09:30N 37°33' W 124°29'612.0
2018-Jul-18 09:00N 37°33' W 124°21'612.2
2018-Jul-18 08:31N 37°34' W 124°13'612.2
2018-Jul-18 08:00N 37°34' W 124°06'611.6
2018-Jul-18 07:30N 37°34' W 123°58'611.8
2018-Jul-18 07:00N 37°34' W 123°51'612.0
2018-Jul-18 06:31N 37°33' W 123°43'612.2
2018-Jul-18 06:00N 37°34' W 123°36'612.2
2018-Jul-18 05:30N 37°34' W 123°28'612.0
2018-Jul-18 05:00N 37°34' W 123°20'611.9
2018-Jul-18 04:30N 37°34' W 123°13'611.7
2018-Jul-18 04:00N 37°34' W 123°06'611.8
2018-Jul-18 03:30N 37°36' W 122°59'612.3
2018-Jul-18 03:00N 37°40' W 122°52'612.5
2018-Jul-18 02:30N 37°43' W 122°46'510.9
2018-Jul-18 02:00N 37°46' W 122°40'815.6
2018-Jul-18 01:30N 37°49' W 122°31'612.7
2018-Jul-18 01:01N 37°53' W 122°25'2 4.4
2018-Jul-18 00:31N 37°54' W 122°23'1 1.3
2018-Jul-17 23:59N 37°54' W 122°22'0 0.0
2018-Jul-17 23:29N 37°54' W 122°22'0 0.0
2018-Jul-17 22:59N 37°54' W 122°22'0 0.0
2018-Jul-17 22:29N 37°54' W 122°22'0 0.0
2018-Jul-17 21:59N 37°54' W 122°22'0 0.0
2018-Jul-17 21:29N 37°54' W 122°22'0 0.0
2018-Jul-17 20:59N 37°54' W 122°22'0 0.0
2018-Jul-17 20:29N 37°54' W 122°22'0 0.0
2018-Jul-17 19:59N 37°54' W 122°22'0 0.0
2018-Jul-17 19:29N 37°54' W 122°22'0 0.0
2018-Jul-17 18:59N 37°54' W 122°22'0 0.0
2018-Jul-17 18:29N 37°54' W 122°22'0 0.0
2018-Jul-17 17:59N 37°54' W 122°22'0 0.0
2018-Jul-17 17:29N 37°54' W 122°22'0 0.0
2018-Jul-17 16:59N 37°54' W 122°22'0 0.0
2018-Jul-17 16:29N 37°54' W 122°22'0 0.0
2018-Jul-17 15:59N 37°54' W 122°22'0 0.0
2018-Jul-17 15:29N 37°54' W 122°22'0 0.0
2018-Jul-17 14:59N 37°54' W 122°22'0 0.0
2018-Jul-17 14:29N 37°54' W 122°22'0 0.0
2018-Jul-17 13:59N 37°54' W 122°22'0 0.0
2018-Jul-17 13:29N 37°54' W 122°22'0 0.0
2018-Jul-17 12:59N 37°54' W 122°22'0 0.0
2018-Jul-17 12:29N 37°54' W 122°22'0 0.0
2018-Jul-17 11:59N 37°54' W 122°22'0 0.0
2018-Jul-17 11:29N 37°54' W 122°22'0 0.0
2018-Jul-17 10:59N 37°54' W 122°22'0 0.0
2018-Jul-17 10:29N 37°54' W 122°22'0 0.0
2018-Jul-17 09:59N 37°54' W 122°22'0 0.0
2018-Jul-17 09:29N 37°54' W 122°22'0 0.0
2018-Jul-17 08:59N 37°54' W 122°22'0 0.0
2018-Jul-17 08:29N 37°54' W 122°22'0 0.0
2018-Jul-17 07:59N 37°54' W 122°22'0 0.0
2018-Jul-17 07:29N 37°54' W 122°22'0 0.0
2018-Jul-17 06:59N 37°54' W 122°22'0 0.0
2018-Jul-17 06:29N 37°54' W 122°22'0 0.0
2018-Jul-17 05:59N 37°54' W 122°22'0 0.0
2018-Jul-17 05:29N 37°54' W 122°22'0 0.0
2018-Jul-17 04:59N 37°54' W 122°22'0 0.0
2018-Jul-17 04:29N 37°54' W 122°22'0 0.0
2018-Jul-17 03:59N 37°54' W 122°22'0 0.0
2018-Jul-17 03:29N 37°54' W 122°22'0 0.0
2018-Jul-17 02:59N 37°54' W 122°22'0 0.0
2018-Jul-17 02:29N 37°54' W 122°22'0 0.4
2018-Jul-17 02:00N 37°54' W 122°22'2 4.0
2018-Jul-17 01:30N 37°55' W 122°24'3 6.0
2018-Jul-17 01:00N 37°52' W 122°25'713.2
2018-Jul-17 00:30N 37°48' W 122°32'1211.8
2018-Jul-16 23:31N 37°46' W 122°46'4 8.6
2018-Jul-16 23:01N 37°48' W 122°51'4 8.7
2018-Jul-16 22:31N 37°50' W 122°56'5 9.0
2018-Jul-16 22:00N 37°53' W 123°01'5 9.0
2018-Jul-16 21:30N 37°55' W 123°06'4 8.8
2018-Jul-16 21:01N 37°57' W 123°11'4 8.7
2018-Jul-16 20:31N 38°00' W 123°14'4 8.8
2018-Jul-16 20:00N 38°04' W 123°18'4 8.9
2018-Jul-16 19:31N 38°07' W 123°21'4 8.8
2018-Jul-16 19:00N 38°11' W 123°25'5 9.1
2018-Jul-16 18:30N 38°14' W 123°29'4 9.1
2018-Jul-16 18:01N 38°18' W 123°32'3 6.1
2018-Jul-16 17:30N 38°20' W 123°34'612.7
2018-Jul-16 17:00N 38°25' W 123°40'612.5
2018-Jul-16 16:30N 38°30' W 123°45'612.2
2018-Jul-16 16:00N 38°35' W 123°50'612.1
2018-Jul-16 15:30N 38°39' W 123°55'612.3
2018-Jul-16 15:00N 38°44' W 123°59'712.8
2018-Jul-16 14:28N 38°50' W 124°05'612.8
2018-Jul-16 14:00N 38°55' W 124°08'612.8
2018-Jul-16 13:30N 39°01' W 124°11'713.1
2018-Jul-16 13:00N 39°07' W 124°15'613.1
2018-Jul-16 12:30N 39°13' W 124°18'713.3
2018-Jul-16 12:00N 39°19' W 124°21'714.1
2018-Jul-16 11:30N 39°26' W 124°24'714.3
2018-Jul-16 11:00N 39°32' W 124°28'16813.3
2018-Jul-15 22:24N 42°18' W 124°59'512.6
2018-Jul-15 21:59N 42°24' W 124°59'1713.5
2018-Jul-15 20:42N 42°41' W 124°58'314.3
2018-Jul-15 20:31N 42°44' W 124°58'714.2
2018-Jul-15 20:00N 42°51' W 124°56'5013.2
2018-Jul-15 16:14N 43°40' W 124°46'1713.5
2018-Jul-15 14:56N 43°57' W 124°43'614.3
2018-Jul-15 14:30N 44°04' W 124°41'914.4
2018-Jul-15 13:50N 44°13' W 124°40'1214.3
2018-Jul-15 12:59N 44°25' W 124°37'714.4
2018-Jul-15 12:30N 44°32' W 124°36'714.5
2018-Jul-15 12:00N 44°39' W 124°35'814.2
2018-Jul-15 11:27N 44°47' W 124°33'814.4
2018-Jul-15 10:52N 44°55' W 124°32'514.5
2018-Jul-15 10:30N 45°00' W 124°31'714.6
2018-Jul-15 10:00N 45°08' W 124°30'714.6
2018-Jul-15 09:30N 45°15' W 124°28'714.5
2018-Jul-15 09:00N 45°22' W 124°27'714.3
2018-Jul-15 08:30N 45°29' W 124°25'714.0
2018-Jul-15 08:01N 45°36' W 124°24'713.8
2018-Jul-15 07:30N 45°43' W 124°22'713.8
2018-Jul-15 06:59N 45°50' W 124°21'713.9
2018-Jul-15 06:30N 45°56' W 124°19'713.8
2018-Jul-15 06:01N 46°03' W 124°17'713.7
2018-Jul-15 05:31N 46°09' W 124°13'714.5
2018-Jul-15 05:01N 46°15' W 124°06'713.5
2018-Jul-15 04:30N 46°12' W 123°57'611.1
2018-Jul-15 04:01N 46°12' W 123°49'510.7
2018-Jul-15 03:30N 46°15' W 123°42'713.6
2018-Jul-15 03:01N 46°16' W 123°32'611.1
2018-Jul-15 02:31N 46°12' W 123°26'611.4
2018-Jul-15 02:00N 46°09' W 123°20'714.3
2018-Jul-15 01:30N 46°11' W 123°10'612.3
2018-Jul-15 01:00N 46°09' W 123°02'611.0
2018-Jul-15 00:30N 46°06' W 122°55'510.9
2018-Jul-15 00:01N 46°01' W 122°52'911.9
2018-Jul-14 23:13N 45°52' W 122°47'311.9
2018-Jul-14 23:00N 45°50' W 122°48'612.7
2018-Jul-14 22:30N 45°43' W 122°46'510.1
2018-Jul-14 22:00N 45°39' W 122°44'0 0.7
2018-Jul-14 21:23N 45°38' W 122°43'0 0.0
2018-Jul-14 20:50N 45°38' W 122°43'0 0.0
2018-Jul-14 20:26N 45°38' W 122°43'0 0.0
2018-Jul-14 19:59N 45°38' W 122°43'0 0.0
2018-Jul-14 19:26N 45°38' W 122°43'0 0.0
2018-Jul-14 18:59N 45°38' W 122°43'0 0.0
2018-Jul-14 18:26N 45°38' W 122°43'0 0.0
2018-Jul-14 17:59N 45°38' W 122°43'0 0.0
2018-Jul-14 17:29N 45°38' W 122°43'0 0.0
2018-Jul-14 16:56N 45°38' W 122°43'0 0.0
2018-Jul-14 16:29N 45°38' W 122°43'0 0.0
2018-Jul-14 15:59N 45°38' W 122°43'0 0.0
2018-Jul-14 15:26N 45°38' W 122°43'0 0.0
2018-Jul-14 14:56N 45°38' W 122°43'0 0.0
2018-Jul-14 14:08N 45°38' W 122°43'0 0.0
2018-Jul-14 13:26N 45°38' W 122°43'0 0.0
2018-Jul-14 12:59N 45°38' W 122°43'0 0.0
2018-Jul-14 12:29N 45°38' W 122°43'0 0.0
2018-Jul-14 11:59N 45°38' W 122°43'0 0.0
2018-Jul-14 11:29N 45°38' W 122°43'0 0.0
2018-Jul-14 11:00N 45°38' W 122°43'0 0.3
2018-Jul-14 10:30N 45°38' W 122°43'1 2.7
2018-Jul-14 10:00N 45°39' W 122°45'610.9
2018-Jul-14 09:29N 45°45' W 122°46'612.8
2018-Jul-14 09:00N 45°50' W 122°47'612.7
2018-Jul-14 08:30N 45°57' W 122°48'611.8
2018-Jul-14 08:01N 46°02' W 122°53'511.0
2018-Jul-14 07:30N 46°06' W 122°57'712.6
2018-Jul-14 06:59N 46°10' W 123°05'611.9
2018-Jul-14 06:30N 46°10' W 123°13'612.3
2018-Jul-14 06:00N 46°09' W 123°22'510.3
2018-Jul-14 05:30N 46°13' W 123°25'510.8
2018-Jul-14 05:00N 46°16' W 123°33'713.3
2018-Jul-14 04:30N 46°15' W 123°42'611.7
2018-Jul-14 04:00N 46°12' W 123°50'610.9
2018-Jul-14 03:27N 46°13' W 123°58'511.9
2018-Jul-14 03:01N 46°15' W 124°05'713.7
2018-Jul-14 02:31N 46°13' W 124°14'814.9
2018-Jul-14 02:00N 46°16' W 124°24'612.3
2018-Jul-14 01:30N 46°20' W 124°30'612.7
2018-Jul-14 01:00N 46°26' W 124°34'612.7
2018-Jul-14 00:30N 46°32' W 124°38'912.8
2018-Jul-13 23:49N 46°39' W 124°45'413.1
2018-Jul-13 23:30N 46°43' W 124°48'4 7.4
2018-Jul-13 23:00N 46°46' W 124°50'713.7
2018-Jul-13 22:31N 46°52' W 124°54'713.5
2018-Jul-13 22:00N 46°58' W 124°59'713.9
2018-Jul-13 21:30N 47°05' W 125°03'814.0
2018-Jul-13 20:57N 47°12' W 125°07'1014.3
2018-Jul-13 20:14N 47°22' W 125°11'314.1
2018-Jul-13 20:00N 47°25' W 125°13'813.6
2018-Jul-13 19:26N 47°32' W 125°16'4113.5
2018-Jul-13 16:26N 48°13' W 125°16'614.8
2018-Jul-13 16:00N 48°19' W 125°12'715.0
2018-Jul-13 15:31N 48°25' W 125°07'714.2
2018-Jul-13 14:59N 48°31' W 125°00'1515.0
2018-Jul-13 14:01N 48°29' W 124°38'815.5
2018-Jul-13 13:31N 48°26' W 124°27'815.6
2018-Jul-13 13:00N 48°23' W 124°16'815.4
2018-Jul-13 12:30N 48°20' W 124°06'815.1
2018-Jul-13 12:00N 48°17' W 123°55'815.0
2018-Jul-13 11:28N 48°16' W 123°43'1013.1
2018-Jul-13 10:44N 48°17' W 123°29'314.3
2018-Jul-13 10:30N 48°20' W 123°26'5 9.8
2018-Jul-13 10:00N 48°23' W 123°21'612.4
2018-Jul-13 09:30N 48°25' W 123°12'815.2
2018-Jul-13 09:00N 48°33' W 123°13'815.2
2018-Jul-13 08:30N 48°40' W 123°15'714.2
2018-Jul-13 07:59N 48°45' W 123°07'714.5
2018-Jul-13 07:30N 48°51' W 123°02'918.5
2018-Jul-13 07:00N 48°57' W 123°13'816.4
2018-Jul-13 06:30N 49°04' W 123°20'510.4
2018-Jul-13 06:00N 49°08' W 123°15'713.6
2018-Jul-13 05:30N 49°07' W 123°05'612.2
2018-Jul-13 05:00N 49°10' W 122°56'1 1.9
2018-Jul-13 04:23N 49°11' W 122°55'0 0.0
2018-Jul-13 03:59N 49°11' W 122°55'0 0.0
2018-Jul-13 02:11N 49°11' W 122°55'0 0.0
2018-Jul-13 01:11N 49°11' W 122°55'0 0.0
2018-Jul-13 00:59N 49°11' W 122°55'0 0.0
2018-Jul-13 00:05N 49°11' W 122°55'0 0.0
2018-Jul-12 23:59N 49°11' W 122°55'0 0.0
2018-Jul-12 23:29N 49°11' W 122°55'0 0.0
2018-Jul-12 22:17N 49°11' W 122°55'0 0.0
2018-Jul-12 21:53N 49°11' W 122°55'0 0.0
2018-Jul-12 21:23N 49°11' W 122°55'0 0.0
2018-Jul-12 20:59N 49°11' W 122°55'0 0.0
2018-Jul-12 20:29N 49°11' W 122°55'0 0.0
2018-Jul-12 19:59N 49°11' W 122°55'0 0.0
2018-Jul-12 19:23N 49°11' W 122°55'0 0.0
2018-Jul-12 18:41N 49°11' W 122°55'0 0.0
2018-Jul-12 18:29N 49°11' W 122°55'0 0.0
2018-Jul-12 17:47N 49°11' W 122°55'0 0.0
2018-Jul-12 17:23N 49°11' W 122°55'0 0.0
2018-Jul-12 16:53N 49°11' W 122°55'0 0.0
2018-Jul-12 16:23N 49°11' W 122°55'0 0.0
2018-Jul-12 15:53N 49°11' W 122°55'0 0.0
2018-Jul-12 15:23N 49°11' W 122°55'0 0.0
2018-Jul-12 14:59N 49°11' W 122°55'0 0.0
2018-Jul-12 14:29N 49°11' W 122°55'0 0.0
2018-Jul-12 14:00N 49°11' W 122°55'0 0.3
2018-Jul-12 13:30N 49°11' W 122°55'3 5.7
2018-Jul-12 12:59N 49°09' W 122°59'4 9.1
2018-Jul-12 12:30N 49°07' W 123°05'5 9.3
2018-Jul-12 12:00N 49°07' W 123°12'610.4
2018-Jul-12 11:28N 49°06' W 123°20'4 8.2
2018-Jul-12 11:01N 49°09' W 123°23'612.0
2018-Jul-12 10:30N 49°15' W 123°20'713.6
2018-Jul-12 10:00N 49°19' W 123°12'510.5
2018-Jul-12 09:30N 49°18' W 123°05'0 0.9
2018-Jul-12 08:59N 49°18' W 123°04'0 0.1
2018-Jul-12 08:29N 49°18' W 123°04'0 0.0
2018-Jul-12 07:58N 49°18' W 123°04'0 0.1
2018-Jul-12 07:28N 49°18' W 123°04'0 0.1
2018-Jul-12 06:59N 49°18' W 123°04'0 0.0
2018-Jul-12 06:28N 49°18' W 123°04'0 0.0
2018-Jul-12 05:59N 49°18' W 123°04'0 0.0
2018-Jul-12 05:28N 49°18' W 123°04'0 0.0
2018-Jul-12 04:58N 49°18' W 123°04'0 0.0
2018-Jul-12 04:28N 49°18' W 123°04'1 1.5
2018-Jul-12 04:00N 49°18' W 123°05'4 8.3
2018-Jul-12 03:30N 49°19' W 123°11'612.5
2018-Jul-12 03:00N 49°15' W 123°19'815.8
2018-Jul-12 02:30N 49°07' W 123°20'714.7
2018-Jul-12 02:00N 49°01' W 123°16'917.5
2018-Jul-12 01:30N 48°55' W 123°06'916.1
2018-Jul-12 00:58N 48°47' W 123°01'918.6
2018-Jul-12 00:29N 48°43' W 123°13'917.8
2018-Jul-12 00:00N 48°34' W 123°13'918.0
2018-Jul-11 23:30N 48°25' W 123°11'815.8
2018-Jul-11 23:00N 48°22' W 123°22'510.1
2018-Jul-11 22:30N 48°17' W 123°25'2412.9
2018-Jul-11 20:38N 48°15' W 124°01'315.8
2018-Jul-11 20:28N 48°17' W 124°05'715.7
2018-Jul-11 20:01N 48°20' W 124°15'816.5
2018-Jul-11 19:31N 48°23' W 124°26'816.1
2018-Jul-11 19:00N 48°27' W 124°37'815.2
2018-Jul-11 18:30N 48°29' W 124°48'815.7
2018-Jul-11 18:01N 48°29' W 124°60'916.9
2018-Jul-11 17:29N 48°28' W 125°13'817.2
2018-Jul-11 17:01N 48°28' W 125°25'917.2
2018-Jul-11 16:30N 48°28' W 125°38'917.0
2018-Jul-11 16:00N 48°28' W 125°51'916.9
2018-Jul-11 15:30N 48°28' W 126°04'917.3
2018-Jul-11 15:00N 48°28' W 126°17'  
Track history (hours):
 
Tides and Currents Weather Stations Pressure Air Temp Water Temp Dewpoint Dewpoint Depression Visibility Wind Speed Wind Dir Waves Ship Positions

Hermes Leader

Last reported at 2018-Jul-19 19:12 UTC. Time now 2018-Jul-22 16:32 UTC.
Position N 39°34' W 132°33'.

Length 200 m; draft 8.4 m.

Type: Cargo ship. MMSI: 311000188.

Date/timePositionNaut miles runAvg speedWind from/ knotsBaromVisibWave heightAir tempDewpointWater temp
2018-Jul-19 19:12N 39°34' W 132°33'212.5
2018-Jul-19 19:01N 39°33' W 132°30'712.4
2018-Jul-19 18:28N 39°30' W 132°22'912.5
2018-Jul-19 17:47N 39°27' W 132°12'412.5
2018-Jul-19 17:30N 39°25' W 132°08'612.4
2018-Jul-19 17:00N 39°22' W 132°01'612.3
2018-Jul-19 16:30N 39°20' W 131°53'1312.3
2018-Jul-19 15:25N 39°14' W 131°38'512.3
2018-Jul-19 15:00N 39°12' W 131°32'2012.5
2018-Jul-19 13:24N 39°04' W 131°08'1112.4
2018-Jul-19 12:31N 38°59' W 130°56'012.9
2018-Jul-19 12:29N 38°59' W 130°55'712.2
2018-Jul-19 11:56N 38°57' W 130°47'912.3
2018-Jul-19 11:14N 38°53' W 130°37'1411.9
2018-Jul-19 10:05N 38°47' W 130°21'511.6
2018-Jul-19 09:41N 38°45' W 130°16'311.8
2018-Jul-19 09:27N 38°44' W 130°12'1211.7
2018-Jul-19 08:24N 38°39' W 129°58'1411.7
2018-Jul-19 07:10N 38°32' W 129°42'211.7
2018-Jul-19 06:58N 38°31' W 129°39'611.8
2018-Jul-19 06:30N 38°28' W 129°33'6611.7
2018-Jul-19 00:50N 37°56' W 128°20'1311.5
2018-Jul-18 23:40N 37°50' W 128°05'311.7
2018-Jul-18 23:23N 37°48' W 128°01'1512.2
2018-Jul-18 22:10N 37°41' W 127°45'1412.1
2018-Jul-18 21:00N 37°34' W 127°29'912.8
2018-Jul-18 20:19N 37°34' W 127°18'412.9
2018-Jul-18 19:59N 37°34' W 127°13'1513.0
2018-Jul-18 18:50N 37°34' W 126°53'613.1
2018-Jul-18 18:24N 37°34' W 126°47'4212.8
2018-Jul-18 15:05N 37°34' W 125°53'112.2
2018-Jul-18 15:00N 37°34' W 125°52'612.0
2018-Jul-18 14:29N 37°34' W 125°44'1212.2
2018-Jul-18 13:30N 37°34' W 125°29'612.0
2018-Jul-18 13:00N 37°34' W 125°21'612.1
2018-Jul-18 12:30N 37°34' W 125°14'611.9
2018-Jul-18 12:00N 37°34' W 125°06'611.8
2018-Jul-18 11:30N 37°34' W 124°59'1212.0
2018-Jul-18 10:30N 37°34' W 124°43'612.0
2018-Jul-18 10:00N 37°34' W 124°36'611.9
2018-Jul-18 09:30N 37°33' W 124°29'612.0
2018-Jul-18 09:00N 37°33' W 124°21'612.2
2018-Jul-18 08:31N 37°34' W 124°13'612.2
2018-Jul-18 08:00N 37°34' W 124°06'611.6
2018-Jul-18 07:30N 37°34' W 123°58'611.8
2018-Jul-18 07:00N 37°34' W 123°51'612.0
2018-Jul-18 06:31N 37°33' W 123°43'612.2
2018-Jul-18 06:00N 37°34' W 123°36'612.2
2018-Jul-18 05:30N 37°34' W 123°28'612.0
2018-Jul-18 05:00N 37°34' W 123°20'611.9
2018-Jul-18 04:30N 37°34' W 123°13'611.7
2018-Jul-18 04:00N 37°34' W 123°06'611.8
2018-Jul-18 03:30N 37°36' W 122°59'612.3
2018-Jul-18 03:00N 37°40' W 122°52'612.5
2018-Jul-18 02:30N 37°43' W 122°46'510.9
2018-Jul-18 02:00N 37°46' W 122°40'815.6
2018-Jul-18 01:30N 37°49' W 122°31'612.7
2018-Jul-18 01:01N 37°53' W 122°25'2 4.4
2018-Jul-18 00:31N 37°54' W 122°23'1 1.3
2018-Jul-17 23:59N 37°54' W 122°22'0 0.0
2018-Jul-17 23:29N 37°54' W 122°22'0 0.0
2018-Jul-17 22:59N 37°54' W 122°22'0 0.0
2018-Jul-17 22:29N 37°54' W 122°22'0 0.0
2018-Jul-17 21:59N 37°54' W 122°22'0 0.0
2018-Jul-17 21:29N 37°54' W 122°22'0 0.0
2018-Jul-17 20:59N 37°54' W 122°22'0 0.0
2018-Jul-17 20:29N 37°54' W 122°22'0 0.0
2018-Jul-17 19:59N 37°54' W 122°22'0 0.0
2018-Jul-17 19:29N 37°54' W 122°22'0 0.0
2018-Jul-17 18:59N 37°54' W 122°22'0 0.0
2018-Jul-17 18:29N 37°54' W 122°22'0 0.0
2018-Jul-17 17:59N 37°54' W 122°22'0 0.0
2018-Jul-17 17:29N 37°54' W 122°22'0 0.0
2018-Jul-17 16:59N 37°54' W 122°22'0 0.0
2018-Jul-17 16:29N 37°54' W 122°22'0 0.0
2018-Jul-17 15:59N 37°54' W 122°22'0 0.0
2018-Jul-17 15:29N 37°54' W 122°22'0 0.0
2018-Jul-17 14:59N 37°54' W 122°22'0 0.0
2018-Jul-17 14:29N 37°54' W 122°22'0 0.0
2018-Jul-17 13:59N 37°54' W 122°22'0 0.0
2018-Jul-17 13:29N 37°54' W 122°22'0 0.0
2018-Jul-17 12:59N 37°54' W 122°22'0 0.0
2018-Jul-17 12:29N 37°54' W 122°22'0 0.0
2018-Jul-17 11:59N 37°54' W 122°22'0 0.0
2018-Jul-17 11:29N 37°54' W 122°22'0 0.0
2018-Jul-17 10:59N 37°54' W 122°22'0 0.0
2018-Jul-17 10:29N 37°54' W 122°22'0 0.0
2018-Jul-17 09:59N 37°54' W 122°22'0 0.0
2018-Jul-17 09:29N 37°54' W 122°22'0 0.0
2018-Jul-17 08:59N 37°54' W 122°22'0 0.0
2018-Jul-17 08:29N 37°54' W 122°22'0 0.0
2018-Jul-17 07:59N 37°54' W 122°22'0 0.0
2018-Jul-17 07:29N 37°54' W 122°22'0 0.0
2018-Jul-17 06:59N 37°54' W 122°22'0 0.0
2018-Jul-17 06:29N 37°54' W 122°22'0 0.0
2018-Jul-17 05:59N 37°54' W 122°22'0 0.0
2018-Jul-17 05:29N 37°54' W 122°22'0 0.0
2018-Jul-17 04:59N 37°54' W 122°22'0 0.0
2018-Jul-17 04:29N 37°54' W 122°22'0 0.0
2018-Jul-17 03:59N 37°54' W 122°22'0 0.0
2018-Jul-17 03:29N 37°54' W 122°22'0 0.0
2018-Jul-17 02:59N 37°54' W 122°22'0 0.0
2018-Jul-17 02:29N 37°54' W 122°22'0 0.4
2018-Jul-17 02:00N 37°54' W 122°22'2 4.0
2018-Jul-17 01:30N 37°55' W 122°24'3 6.0
2018-Jul-17 01:00N 37°52' W 122°25'713.2
2018-Jul-17 00:30N 37°48' W 122°32'1211.8
2018-Jul-16 23:31N 37°46' W 122°46'4 8.6
2018-Jul-16 23:01N 37°48' W 122°51'4 8.7
2018-Jul-16 22:31N 37°50' W 122°56'5 9.0
2018-Jul-16 22:00N 37°53' W 123°01'5 9.0
2018-Jul-16 21:30N 37°55' W 123°06'4 8.8
2018-Jul-16 21:01N 37°57' W 123°11'4 8.7
2018-Jul-16 20:31N 38°00' W 123°14'4 8.8
2018-Jul-16 20:00N 38°04' W 123°18'4 8.9
2018-Jul-16 19:31N 38°07' W 123°21'4 8.8
2018-Jul-16 19:00N 38°11' W 123°25'5 9.1
2018-Jul-16 18:30N 38°14' W 123°29'4 9.1
2018-Jul-16 18:01N 38°18' W 123°32'3 6.1
2018-Jul-16 17:30N 38°20' W 123°34'612.7
2018-Jul-16 17:00N 38°25' W 123°40'612.5
2018-Jul-16 16:30N 38°30' W 123°45'612.2
2018-Jul-16 16:00N 38°35' W 123°50'612.1
2018-Jul-16 15:30N 38°39' W 123°55'612.3
2018-Jul-16 15:00N 38°44' W 123°59'712.8
2018-Jul-16 14:28N 38°50' W 124°05'612.8
2018-Jul-16 14:00N 38°55' W 124°08'612.8
2018-Jul-16 13:30N 39°01' W 124°11'713.1
2018-Jul-16 13:00N 39°07' W 124°15'613.1
2018-Jul-16 12:30N 39°13' W 124°18'713.3
2018-Jul-16 12:00N 39°19' W 124°21'714.1
2018-Jul-16 11:30N 39°26' W 124°24'714.3
2018-Jul-16 11:00N 39°32' W 124°28'16813.3
2018-Jul-15 22:24N 42°18' W 124°59'512.6
2018-Jul-15 21:59N 42°24' W 124°59'1713.5
2018-Jul-15 20:42N 42°41' W 124°58'314.3
2018-Jul-15 20:31N 42°44' W 124°58'714.2
2018-Jul-15 20:00N 42°51' W 124°56'5013.2
2018-Jul-15 16:14N 43°40' W 124°46'1713.5
2018-Jul-15 14:56N 43°57' W 124°43'614.3
2018-Jul-15 14:30N 44°04' W 124°41'914.4
2018-Jul-15 13:50N 44°13' W 124°40'1214.3
2018-Jul-15 12:59N 44°25' W 124°37'714.4
2018-Jul-15 12:30N 44°32' W 124°36'714.5
2018-Jul-15 12:00N 44°39' W 124°35'814.2
2018-Jul-15 11:27N 44°47' W 124°33'814.4
2018-Jul-15 10:52N 44°55' W 124°32'514.5
2018-Jul-15 10:30N 45°00' W 124°31'714.6
2018-Jul-15 10:00N 45°08' W 124°30'714.6
2018-Jul-15 09:30N 45°15' W 124°28'714.5
2018-Jul-15 09:00N 45°22' W 124°27'714.3
2018-Jul-15 08:30N 45°29' W 124°25'714.0
2018-Jul-15 08:01N 45°36' W 124°24'713.8
2018-Jul-15 07:30N 45°43' W 124°22'713.8
2018-Jul-15 06:59N 45°50' W 124°21'713.9
2018-Jul-15 06:30N 45°56' W 124°19'713.8
2018-Jul-15 06:01N 46°03' W 124°17'713.7
2018-Jul-15 05:31N 46°09' W 124°13'714.5
2018-Jul-15 05:01N 46°15' W 124°06'713.5
2018-Jul-15 04:30N 46°12' W 123°57'611.1
2018-Jul-15 04:01N 46°12' W 123°49'510.7
2018-Jul-15 03:30N 46°15' W 123°42'713.6
2018-Jul-15 03:01N 46°16' W 123°32'611.1
2018-Jul-15 02:31N 46°12' W 123°26'611.4
2018-Jul-15 02:00N 46°09' W 123°20'714.3
2018-Jul-15 01:30N 46°11' W 123°10'612.3
2018-Jul-15 01:00N 46°09' W 123°02'611.0
2018-Jul-15 00:30N 46°06' W 122°55'510.9
2018-Jul-15 00:01N 46°01' W 122°52'911.9
2018-Jul-14 23:13N 45°52' W 122°47'311.9
2018-Jul-14 23:00N 45°50' W 122°48'612.7
2018-Jul-14 22:30N 45°43' W 122°46'510.1
2018-Jul-14 22:00N 45°39' W 122°44'0 0.7
2018-Jul-14 21:23N 45°38' W 122°43'0 0.0
2018-Jul-14 20:50N 45°38' W 122°43'0 0.0
2018-Jul-14 20:26N 45°38' W 122°43'0 0.0
2018-Jul-14 19:59N 45°38' W 122°43'0 0.0
2018-Jul-14 19:26N 45°38' W 122°43'0 0.0
2018-Jul-14 18:59N 45°38' W 122°43'0 0.0
2018-Jul-14 18:26N 45°38' W 122°43'0 0.0
2018-Jul-14 17:59N 45°38' W 122°43'0 0.0
2018-Jul-14 17:29N 45°38' W 122°43'0 0.0
2018-Jul-14 16:56N 45°38' W 122°43'0 0.0
2018-Jul-14 16:29N 45°38' W 122°43'0 0.0
2018-Jul-14 15:59N 45°38' W 122°43'0 0.0
2018-Jul-14 15:26N 45°38' W 122°43'0 0.0
2018-Jul-14 14:56N 45°38' W 122°43'0 0.0
2018-Jul-14 14:08N 45°38' W 122°43'0 0.0
2018-Jul-14 13:26N 45°38' W 122°43'0 0.0
2018-Jul-14 12:59N 45°38' W 122°43'0 0.0
2018-Jul-14 12:29N 45°38' W 122°43'0 0.0
2018-Jul-14 11:59N 45°38' W 122°43'0 0.0
2018-Jul-14 11:29N 45°38' W 122°43'0 0.0
2018-Jul-14 11:00N 45°38' W 122°43'0 0.3
2018-Jul-14 10:30N 45°38' W 122°43'1 2.7
2018-Jul-14 10:00N 45°39' W 122°45'610.9
2018-Jul-14 09:29N 45°45' W 122°46'612.8
2018-Jul-14 09:00N 45°50' W 122°47'612.7
2018-Jul-14 08:30N 45°57' W 122°48'611.8
2018-Jul-14 08:01N 46°02' W 122°53'511.0
2018-Jul-14 07:30N 46°06' W 122°57'712.6
2018-Jul-14 06:59N 46°10' W 123°05'611.9
2018-Jul-14 06:30N 46°10' W 123°13'612.3
2018-Jul-14 06:00N 46°09' W 123°22'510.3
2018-Jul-14 05:30N 46°13' W 123°25'510.8
2018-Jul-14 05:00N 46°16' W 123°33'713.3
2018-Jul-14 04:30N 46°15' W 123°42'611.7
2018-Jul-14 04:00N 46°12' W 123°50'610.9
2018-Jul-14 03:27N 46°13' W 123°58'511.9
2018-Jul-14 03:01N 46°15' W 124°05'713.7
2018-Jul-14 02:31N 46°13' W 124°14'814.9
2018-Jul-14 02:00N 46°16' W 124°24'612.3
2018-Jul-14 01:30N 46°20' W 124°30'612.7
2018-Jul-14 01:00N 46°26' W 124°34'612.7
2018-Jul-14 00:30N 46°32' W 124°38'912.8
2018-Jul-13 23:49N 46°39' W 124°45'413.1
2018-Jul-13 23:30N 46°43' W 124°48'4 7.4
2018-Jul-13 23:00N 46°46' W 124°50'713.7
2018-Jul-13 22:31N 46°52' W 124°54'713.5
2018-Jul-13 22:00N 46°58' W 124°59'713.9
2018-Jul-13 21:30N 47°05' W 125°03'814.0
2018-Jul-13 20:57N 47°12' W 125°07'1014.3
2018-Jul-13 20:14N 47°22' W 125°11'314.1
2018-Jul-13 20:00N 47°25' W 125°13'813.6
2018-Jul-13 19:26N 47°32' W 125°16'4113.5
2018-Jul-13 16:26N 48°13' W 125°16'614.8
2018-Jul-13 16:00N 48°19' W 125°12'715.0
2018-Jul-13 15:31N 48°25' W 125°07'714.2
2018-Jul-13 14:59N 48°31' W 125°00'1515.0
2018-Jul-13 14:01N 48°29' W 124°38'815.5
2018-Jul-13 13:31N 48°26' W 124°27'815.6
2018-Jul-13 13:00N 48°23' W 124°16'815.4
2018-Jul-13 12:30N 48°20' W 124°06'815.1
2018-Jul-13 12:00N 48°17' W 123°55'815.0
2018-Jul-13 11:28N 48°16' W 123°43'1013.1
2018-Jul-13 10:44N 48°17' W 123°29'314.3
2018-Jul-13 10:30N 48°20' W 123°26'5 9.8
2018-Jul-13 10:00N 48°23' W 123°21'612.4
2018-Jul-13 09:30N 48°25' W 123°12'815.2
2018-Jul-13 09:00N 48°33' W 123°13'815.2
2018-Jul-13 08:30N 48°40' W 123°15'714.2
2018-Jul-13 07:59N 48°45' W 123°07'714.5
2018-Jul-13 07:30N 48°51' W 123°02'918.5
2018-Jul-13 07:00N 48°57' W 123°13'816.4
2018-Jul-13 06:30N 49°04' W 123°20'510.4
2018-Jul-13 06:00N 49°08' W 123°15'713.6
2018-Jul-13 05:30N 49°07' W 123°05'612.2
2018-Jul-13 05:00N 49°10' W 122°56'1 1.9
2018-Jul-13 04:23N 49°11' W 122°55'0 0.0
2018-Jul-13 03:59N 49°11' W 122°55'0 0.0
2018-Jul-13 02:11N 49°11' W 122°55'0 0.0
2018-Jul-13 01:11N 49°11' W 122°55'0 0.0
2018-Jul-13 00:59N 49°11' W 122°55'0 0.0
2018-Jul-13 00:05N 49°11' W 122°55'0 0.0
2018-Jul-12 23:59N 49°11' W 122°55'0 0.0
2018-Jul-12 23:29N 49°11' W 122°55'0 0.0
2018-Jul-12 22:17N 49°11' W 122°55'0 0.0
2018-Jul-12 21:53N 49°11' W 122°55'0 0.0
2018-Jul-12 21:23N 49°11' W 122°55'0 0.0
2018-Jul-12 20:59N 49°11' W 122°55'0 0.0
2018-Jul-12 20:29N 49°11' W 122°55'0 0.0
2018-Jul-12 19:59N 49°11' W 122°55'0 0.0
2018-Jul-12 19:23N 49°11' W 122°55'0 0.0
2018-Jul-12 18:41N 49°11' W 122°55'0 0.0
2018-Jul-12 18:29N 49°11' W 122°55'0 0.0
2018-Jul-12 17:47N 49°11' W 122°55'0 0.0
2018-Jul-12 17:23N 49°11' W 122°55'0 0.0
2018-Jul-12 16:53N 49°11' W 122°55'0 0.0
2018-Jul-12 16:23N 49°11' W 122°55'0 0.0
2018-Jul-12 15:53N 49°11' W 122°55'0 0.0
2018-Jul-12 15:23N 49°11' W 122°55'0 0.0
2018-Jul-12 14:59N 49°11' W 122°55'0 0.0
2018-Jul-12 14:29N 49°11' W 122°55'0 0.0
2018-Jul-12 14:00N 49°11' W 122°55'0 0.3
2018-Jul-12 13:30N 49°11' W 122°55'3 5.7
2018-Jul-12 12:59N 49°09' W 122°59'4 9.1
2018-Jul-12 12:30N 49°07' W 123°05'5 9.3
2018-Jul-12 12:00N 49°07' W 123°12'610.4
2018-Jul-12 11:28N 49°06' W 123°20'4 8.2
2018-Jul-12 11:01N 49°09' W 123°23'612.0
2018-Jul-12 10:30N 49°15' W 123°20'713.6
2018-Jul-12 10:00N 49°19' W 123°12'510.5
2018-Jul-12 09:30N 49°18' W 123°05'0 0.9
2018-Jul-12 08:59N 49°18' W 123°04'0 0.1
2018-Jul-12 08:29N 49°18' W 123°04'0 0.0
2018-Jul-12 07:58N 49°18' W 123°04'0 0.1
2018-Jul-12 07:28N 49°18' W 123°04'0 0.1
2018-Jul-12 06:59N 49°18' W 123°04'0 0.0
2018-Jul-12 06:28N 49°18' W 123°04'0 0.0
2018-Jul-12 05:59N 49°18' W 123°04'0 0.0
2018-Jul-12 05:28N 49°18' W 123°04'0 0.0
2018-Jul-12 04:58N 49°18' W 123°04'0 0.0
2018-Jul-12 04:28N 49°18' W 123°04'1 1.5
2018-Jul-12 04:00N 49°18' W 123°05'4 8.3
2018-Jul-12 03:30N 49°19' W 123°11'612.5
2018-Jul-12 03:00N 49°15' W 123°19'815.8
2018-Jul-12 02:30N 49°07' W 123°20'714.7
2018-Jul-12 02:00N 49°01' W 123°16'917.5
2018-Jul-12 01:30N 48°55' W 123°06'916.1
2018-Jul-12 00:58N 48°47' W 123°01'918.6
2018-Jul-12 00:29N 48°43' W 123°13'917.8
2018-Jul-12 00:00N 48°34' W 123°13'918.0
2018-Jul-11 23:30N 48°25' W 123°11'815.8
2018-Jul-11 23:00N 48°22' W 123°22'510.1
2018-Jul-11 22:30N 48°17' W 123°25'2412.9
2018-Jul-11 20:38N 48°15' W 124°01'315.8
2018-Jul-11 20:28N 48°17' W 124°05'715.7
2018-Jul-11 20:01N 48°20' W 124°15'816.5
2018-Jul-11 19:31N 48°23' W 124°26'816.1
2018-Jul-11 19:00N 48°27' W 124°37'815.2
2018-Jul-11 18:30N 48°29' W 124°48'815.7
2018-Jul-11 18:01N 48°29' W 124°60'916.9
2018-Jul-11 17:29N 48°28' W 125°13'817.2
2018-Jul-11 17:01N 48°28' W 125°25'917.2
2018-Jul-11 16:30N 48°28' W 125°38'917.0
2018-Jul-11 16:00N 48°28' W 125°51'916.9
2018-Jul-11 15:30N 48°28' W 126°04'917.3
2018-Jul-11 15:00N 48°28' W 126°17'  

Dump ship's entire track history